sensor_id;sensor_type;location;lat;lon;timestamp;P1;durP1;ratioP1;P2;durP2;ratioP2
69188;SDS011;56302;52.322;5.926;2022-08-30T00:00:52;8.45;;;4.30;;
69188;SDS011;56302;52.322;5.926;2022-08-30T00:03:27;6.60;;;3.50;;
69188;SDS011;56302;52.322;5.926;2022-08-30T00:06:09;6.53;;;3.60;;
69188;SDS011;56302;52.322;5.926;2022-08-30T00:08:35;7.07;;;4.15;;
69188;SDS011;56302;52.322;5.926;2022-08-30T00:11:03;7.93;;;3.75;;
69188;SDS011;56302;52.322;5.926;2022-08-30T00:13:30;5.63;;;3.95;;
69188;SDS011;56302;52.322;5.926;2022-08-30T00:15:56;6.27;;;3.60;;
69188;SDS011;56302;52.322;5.926;2022-08-30T00:18:22;6.18;;;3.70;;
69188;SDS011;56302;52.322;5.926;2022-08-30T00:20:47;6.53;;;3.93;;
69188;SDS011;56302;52.322;5.926;2022-08-30T00:23:14;6.70;;;4.07;;
69188;SDS011;56302;52.322;5.926;2022-08-30T00:25:42;6.53;;;4.85;;
69188;SDS011;56302;52.322;5.926;2022-08-30T00:28:08;6.97;;;4.53;;
69188;SDS011;56302;52.322;5.926;2022-08-30T00:30:35;7.03;;;4.50;;
69188;SDS011;56302;52.322;5.926;2022-08-30T00:33:01;7.10;;;4.47;;
69188;SDS011;56302;52.322;5.926;2022-08-30T00:35:27;8.77;;;4.82;;
69188;SDS011;56302;52.322;5.926;2022-08-30T00:37:52;7.72;;;4.03;;
69188;SDS011;56302;52.322;5.926;2022-08-30T00:40:18;7.93;;;4.70;;
69188;SDS011;56302;52.322;5.926;2022-08-30T00:42:45;9.23;;;4.45;;
69188;SDS011;56302;52.322;5.926;2022-08-30T00:45:22;7.70;;;4.47;;
69188;SDS011;56302;52.322;5.926;2022-08-30T00:47:50;8.20;;;4.70;;
69188;SDS011;56302;52.322;5.926;2022-08-30T00:50:16;6.80;;;4.13;;
69188;SDS011;56302;52.322;5.926;2022-08-30T00:52:45;8.85;;;4.30;;
69188;SDS011;56302;52.322;5.926;2022-08-30T00:55:13;10.13;;;4.95;;
69188;SDS011;56302;52.322;5.926;2022-08-30T00:57:42;6.57;;;5.00;;
69188;SDS011;56302;52.322;5.926;2022-08-30T01:00:09;6.30;;;4.50;;
69188;SDS011;56302;52.322;5.926;2022-08-30T01:02:36;9.63;;;5.20;;
69188;SDS011;56302;52.322;5.926;2022-08-30T01:05:03;8.13;;;4.60;;
69188;SDS011;56302;52.322;5.926;2022-08-30T01:07:32;6.68;;;4.30;;
69188;SDS011;56302;52.322;5.926;2022-08-30T01:09:58;6.40;;;4.38;;
69188;SDS011;56302;52.322;5.926;2022-08-30T01:12:26;7.38;;;4.47;;
69188;SDS011;56302;52.322;5.926;2022-08-30T01:14:52;6.40;;;4.53;;
69188;SDS011;56302;52.322;5.926;2022-08-30T01:17:17;6.20;;;4.87;;
69188;SDS011;56302;52.322;5.926;2022-08-30T01:20:18;6.30;;;4.35;;
69188;SDS011;56302;52.322;5.926;2022-08-30T01:25:10;8.07;;;4.93;;
69188;SDS011;56302;52.322;5.926;2022-08-30T01:27:38;7.80;;;4.90;;
69188;SDS011;56302;52.322;5.926;2022-08-30T01:30:08;6.30;;;4.00;;
69188;SDS011;56302;52.322;5.926;2022-08-30T01:32:37;6.60;;;4.22;;
69188;SDS011;56302;52.322;5.926;2022-08-30T01:35:09;6.07;;;3.92;;
69188;SDS011;56302;52.322;5.926;2022-08-30T01:37:36;6.63;;;4.37;;
69188;SDS011;56302;52.322;5.926;2022-08-30T01:40:03;5.63;;;4.28;;
69188;SDS011;56302;52.322;5.926;2022-08-30T01:42:30;6.28;;;4.90;;
69188;SDS011;56302;52.322;5.926;2022-08-30T01:44:56;11.25;;;4.45;;
69188;SDS011;56302;52.322;5.926;2022-08-30T01:47:21;6.90;;;4.40;;
69188;SDS011;56302;52.322;5.926;2022-08-30T01:49:48;5.70;;;4.13;;
69188;SDS011;56302;52.322;5.926;2022-08-30T01:52:14;6.53;;;4.22;;
69188;SDS011;56302;52.322;5.926;2022-08-30T01:54:42;5.85;;;4.10;;
69188;SDS011;56302;52.322;5.926;2022-08-30T01:57:09;9.43;;;4.87;;
69188;SDS011;56302;52.322;5.926;2022-08-30T01:59:37;6.97;;;3.92;;
69188;SDS011;56302;52.322;5.926;2022-08-30T02:02:04;7.47;;;3.83;;
69188;SDS011;56302;52.322;5.926;2022-08-30T02:04:30;6.65;;;3.95;;
69188;SDS011;56302;52.322;5.926;2022-08-30T02:06:55;5.03;;;4.00;;
69188;SDS011;56302;52.322;5.926;2022-08-30T02:09:21;9.10;;;3.90;;
69188;SDS011;56302;52.322;5.926;2022-08-30T02:11:47;6.25;;;3.75;;
69188;SDS011;56302;52.322;5.926;2022-08-30T02:14:12;8.00;;;5.20;;
69188;SDS011;56302;52.322;5.926;2022-08-30T02:16:38;7.43;;;4.40;;
69188;SDS011;56302;52.322;5.926;2022-08-30T02:19:04;7.97;;;4.53;;
69188;SDS011;56302;52.322;5.926;2022-08-30T02:21:30;8.70;;;5.07;;
69188;SDS011;56302;52.322;5.926;2022-08-30T02:23:56;9.43;;;5.10;;
69188;SDS011;56302;52.322;5.926;2022-08-30T02:26:22;7.67;;;5.40;;
69188;SDS011;56302;52.322;5.926;2022-08-30T02:28:48;8.23;;;5.40;;
69188;SDS011;56302;52.322;5.926;2022-08-30T02:31:15;9.20;;;6.32;;
69188;SDS011;56302;52.322;5.926;2022-08-30T02:33:42;9.82;;;6.72;;
69188;SDS011;56302;52.322;5.926;2022-08-30T02:36:07;8.13;;;5.67;;
69188;SDS011;56302;52.322;5.926;2022-08-30T02:38:33;10.25;;;6.30;;
69188;SDS011;56302;52.322;5.926;2022-08-30T02:40:59;10.90;;;7.13;;
69188;SDS011;56302;52.322;5.926;2022-08-30T02:43:25;8.73;;;5.72;;
69188;SDS011;56302;52.322;5.926;2022-08-30T02:45:51;8.02;;;6.35;;
69188;SDS011;56302;52.322;5.926;2022-08-30T02:48:17;10.60;;;6.43;;
69188;SDS011;56302;52.322;5.926;2022-08-30T02:50:43;9.32;;;6.07;;
69188;SDS011;56302;52.322;5.926;2022-08-30T02:53:11;9.13;;;5.83;;
69188;SDS011;56302;52.322;5.926;2022-08-30T02:55:36;7.97;;;5.53;;
69188;SDS011;56302;52.322;5.926;2022-08-30T02:58:02;10.03;;;5.67;;
69188;SDS011;56302;52.322;5.926;2022-08-30T03:00:28;7.25;;;5.38;;
69188;SDS011;56302;52.322;5.926;2022-08-30T03:02:53;6.83;;;5.33;;
69188;SDS011;56302;52.322;5.926;2022-08-30T03:05:19;6.93;;;5.18;;
69188;SDS011;56302;52.322;5.926;2022-08-30T03:07:45;10.53;;;6.60;;
69188;SDS011;56302;52.322;5.926;2022-08-30T03:10:12;10.07;;;7.18;;
69188;SDS011;56302;52.322;5.926;2022-08-30T03:12:38;9.52;;;6.15;;
69188;SDS011;56302;52.322;5.926;2022-08-30T03:15:05;9.18;;;6.72;;
69188;SDS011;56302;52.322;5.926;2022-08-30T03:17:32;8.15;;;5.50;;
69188;SDS011;56302;52.322;5.926;2022-08-30T03:19:58;8.30;;;6.17;;
69188;SDS011;56302;52.322;5.926;2022-08-30T03:22:25;8.48;;;5.60;;
69188;SDS011;56302;52.322;5.926;2022-08-30T03:24:50;10.77;;;6.88;;
69188;SDS011;56302;52.322;5.926;2022-08-30T03:27:16;10.30;;;6.43;;
69188;SDS011;56302;52.322;5.926;2022-08-30T03:29:41;10.73;;;6.73;;
69188;SDS011;56302;52.322;5.926;2022-08-30T03:32:07;9.57;;;5.97;;
69188;SDS011;56302;52.322;5.926;2022-08-30T03:34:33;11.73;;;6.87;;
69188;SDS011;56302;52.322;5.926;2022-08-30T03:36:58;9.23;;;6.68;;
69188;SDS011;56302;52.322;5.926;2022-08-30T03:39:25;11.20;;;6.90;;
69188;SDS011;56302;52.322;5.926;2022-08-30T03:41:51;13.33;;;7.13;;
69188;SDS011;56302;52.322;5.926;2022-08-30T03:44:17;10.13;;;6.65;;
69188;SDS011;56302;52.322;5.926;2022-08-30T03:46:43;9.40;;;6.67;;
69188;SDS011;56302;52.322;5.926;2022-08-30T03:49:09;10.80;;;7.20;;
69188;SDS011;56302;52.322;5.926;2022-08-30T03:51:34;10.90;;;7.30;;
69188;SDS011;56302;52.322;5.926;2022-08-30T03:54:00;11.07;;;7.18;;
69188;SDS011;56302;52.322;5.926;2022-08-30T03:56:26;10.27;;;6.68;;
69188;SDS011;56302;52.322;5.926;2022-08-30T03:58:52;9.80;;;7.00;;
69188;SDS011;56302;52.322;5.926;2022-08-30T04:01:18;9.32;;;5.95;;
69188;SDS011;56302;52.322;5.926;2022-08-30T04:03:43;8.45;;;6.55;;
69188;SDS011;56302;52.322;5.926;2022-08-30T04:06:10;10.85;;;5.88;;
69188;SDS011;56302;52.322;5.926;2022-08-30T04:08:35;8.70;;;6.17;;
69188;SDS011;56302;52.322;5.926;2022-08-30T04:11:02;8.95;;;5.60;;
69188;SDS011;56302;52.322;5.926;2022-08-30T04:13:28;11.10;;;6.53;;
69188;SDS011;56302;52.322;5.926;2022-08-30T04:15:54;9.03;;;6.90;;
69188;SDS011;56302;52.322;5.926;2022-08-30T04:18:20;12.00;;;7.80;;
69188;SDS011;56302;52.322;5.926;2022-08-30T04:20:46;9.23;;;6.60;;
69188;SDS011;56302;52.322;5.926;2022-08-30T04:23:11;10.83;;;7.13;;
69188;SDS011;56302;52.322;5.926;2022-08-30T04:25:38;13.48;;;7.45;;
69188;SDS011;56302;52.322;5.926;2022-08-30T04:28:05;9.65;;;6.35;;
69188;SDS011;56302;52.322;5.926;2022-08-30T04:30:31;10.30;;;6.95;;
69188;SDS011;56302;52.322;5.926;2022-08-30T04:33:03;10.47;;;6.40;;
69188;SDS011;56302;52.322;5.926;2022-08-30T04:35:28;11.95;;;7.00;;
69188;SDS011;56302;52.322;5.926;2022-08-30T04:37:54;11.32;;;7.45;;
69188;SDS011;56302;52.322;5.926;2022-08-30T04:40:19;9.43;;;6.30;;
69188;SDS011;56302;52.322;5.926;2022-08-30T04:42:45;10.63;;;7.00;;
69188;SDS011;56302;52.322;5.926;2022-08-30T04:45:12;10.35;;;8.02;;
69188;SDS011;56302;52.322;5.926;2022-08-30T04:47:41;10.00;;;7.30;;
69188;SDS011;56302;52.322;5.926;2022-08-30T04:50:08;10.95;;;7.50;;
69188;SDS011;56302;52.322;5.926;2022-08-30T04:52:35;10.10;;;7.07;;
69188;SDS011;56302;52.322;5.926;2022-08-30T04:55:03;9.82;;;6.90;;
69188;SDS011;56302;52.322;5.926;2022-08-30T04:57:29;9.13;;;7.07;;
69188;SDS011;56302;52.322;5.926;2022-08-30T04:59:55;10.07;;;6.68;;
69188;SDS011;56302;52.322;5.926;2022-08-30T05:02:20;11.17;;;7.10;;
69188;SDS011;56302;52.322;5.926;2022-08-30T05:04:47;10.73;;;7.43;;
69188;SDS011;56302;52.322;5.926;2022-08-30T05:07:33;11.88;;;7.90;;
69188;SDS011;56302;52.322;5.926;2022-08-30T05:09:59;11.20;;;6.78;;
69188;SDS011;56302;52.322;5.926;2022-08-30T05:12:25;10.40;;;7.10;;
69188;SDS011;56302;52.322;5.926;2022-08-30T05:14:51;15.43;;;8.60;;
69188;SDS011;56302;52.322;5.926;2022-08-30T05:17:16;11.13;;;7.23;;
69188;SDS011;56302;52.322;5.926;2022-08-30T05:19:42;11.25;;;7.30;;
69188;SDS011;56302;52.322;5.926;2022-08-30T05:22:07;9.40;;;7.00;;
69188;SDS011;56302;52.322;5.926;2022-08-30T05:24:33;13.07;;;7.32;;
69188;SDS011;56302;52.322;5.926;2022-08-30T05:26:59;13.73;;;7.77;;
69188;SDS011;56302;52.322;5.926;2022-08-30T05:29:25;10.75;;;6.93;;
69188;SDS011;56302;52.322;5.926;2022-08-30T05:31:51;12.50;;;6.60;;
69188;SDS011;56302;52.322;5.926;2022-08-30T05:34:17;11.35;;;7.30;;
69188;SDS011;56302;52.322;5.926;2022-08-30T05:36:44;11.63;;;7.23;;
69188;SDS011;56302;52.322;5.926;2022-08-30T05:39:10;13.40;;;6.57;;
69188;SDS011;56302;52.322;5.926;2022-08-30T05:41:36;9.82;;;7.25;;
69188;SDS011;56302;52.322;5.926;2022-08-30T05:44:03;10.48;;;6.60;;
69188;SDS011;56302;52.322;5.926;2022-08-30T05:46:30;11.38;;;6.68;;
69188;SDS011;56302;52.322;5.926;2022-08-30T05:48:57;10.73;;;5.77;;
69188;SDS011;56302;52.322;5.926;2022-08-30T05:51:26;8.45;;;6.13;;
69188;SDS011;56302;52.322;5.926;2022-08-30T05:53:55;10.55;;;6.80;;
69188;SDS011;56302;52.322;5.926;2022-08-30T05:56:22;8.38;;;6.25;;
69188;SDS011;56302;52.322;5.926;2022-08-30T05:58:51;8.32;;;6.13;;
69188;SDS011;56302;52.322;5.926;2022-08-30T06:01:38;6.77;;;5.13;;
69188;SDS011;56302;52.322;5.926;2022-08-30T06:04:05;8.45;;;5.43;;
69188;SDS011;56302;52.322;5.926;2022-08-30T06:06:32;8.93;;;5.45;;
69188;SDS011;56302;52.322;5.926;2022-08-30T06:09:00;7.80;;;5.18;;
69188;SDS011;56302;52.322;5.926;2022-08-30T06:11:30;11.00;;;5.68;;
69188;SDS011;56302;52.322;5.926;2022-08-30T06:13:56;8.37;;;5.10;;
69188;SDS011;56302;52.322;5.926;2022-08-30T06:16:23;9.65;;;4.78;;
69188;SDS011;56302;52.322;5.926;2022-08-30T06:18:50;9.48;;;5.28;;
69188;SDS011;56302;52.322;5.926;2022-08-30T06:21:19;6.97;;;5.15;;
69188;SDS011;56302;52.322;5.926;2022-08-30T06:23:46;8.73;;;4.73;;
69188;SDS011;56302;52.322;5.926;2022-08-30T06:26:12;6.43;;;4.78;;
69188;SDS011;56302;52.322;5.926;2022-08-30T06:28:38;16.33;;;6.43;;
69188;SDS011;56302;52.322;5.926;2022-08-30T06:31:07;7.90;;;4.32;;
69188;SDS011;56302;52.322;5.926;2022-08-30T06:33:34;10.80;;;4.50;;
69188;SDS011;56302;52.322;5.926;2022-08-30T06:36:03;7.20;;;3.93;;
69188;SDS011;56302;52.322;5.926;2022-08-30T06:38:30;7.00;;;4.13;;
69188;SDS011;56302;52.322;5.926;2022-08-30T06:40:55;9.17;;;4.33;;
69188;SDS011;56302;52.322;5.926;2022-08-30T06:43:21;11.18;;;5.35;;
69188;SDS011;56302;52.322;5.926;2022-08-30T06:45:46;4.87;;;3.77;;
69188;SDS011;56302;52.322;5.926;2022-08-30T06:48:12;7.97;;;4.23;;
69188;SDS011;56302;52.322;5.926;2022-08-30T06:50:37;6.90;;;4.30;;
69188;SDS011;56302;52.322;5.926;2022-08-30T06:53:05;7.90;;;4.00;;
69188;SDS011;56302;52.322;5.926;2022-08-30T06:55:31;5.97;;;3.78;;
69188;SDS011;56302;52.322;5.926;2022-08-30T06:58:00;6.18;;;3.70;;
69188;SDS011;56302;52.322;5.926;2022-08-30T07:00:26;7.45;;;3.92;;
69188;SDS011;56302;52.322;5.926;2022-08-30T07:02:52;6.43;;;3.20;;
69188;SDS011;56302;52.322;5.926;2022-08-30T07:05:18;5.38;;;3.50;;
69188;SDS011;56302;52.322;5.926;2022-08-30T07:07:47;5.65;;;3.45;;
69188;SDS011;56302;52.322;5.926;2022-08-30T07:10:13;6.75;;;3.45;;
69188;SDS011;56302;52.322;5.926;2022-08-30T07:12:39;9.27;;;3.80;;
69188;SDS011;56302;52.322;5.926;2022-08-30T07:15:06;9.88;;;3.15;;
69188;SDS011;56302;52.322;5.926;2022-08-30T07:17:33;11.93;;;4.22;;
69188;SDS011;56302;52.322;5.926;2022-08-30T07:20:17;7.20;;;3.17;;
69188;SDS011;56302;52.322;5.926;2022-08-30T07:22:45;5.25;;;3.05;;
69188;SDS011;56302;52.322;5.926;2022-08-30T07:25:11;7.17;;;2.40;;
69188;SDS011;56302;52.322;5.926;2022-08-30T07:27:38;4.97;;;2.67;;
69188;SDS011;56302;52.322;5.926;2022-08-30T07:30:04;7.85;;;2.67;;
69188;SDS011;56302;52.322;5.926;2022-08-30T07:32:31;5.63;;;2.63;;
69188;SDS011;56302;52.322;5.926;2022-08-30T07:34:56;4.30;;;2.37;;
69188;SDS011;56302;52.322;5.926;2022-08-30T07:37:22;5.40;;;2.30;;
69188;SDS011;56302;52.322;5.926;2022-08-30T07:39:48;5.10;;;2.47;;
69188;SDS011;56302;52.322;5.926;2022-08-30T07:42:14;4.70;;;2.07;;
69188;SDS011;56302;52.322;5.926;2022-08-30T07:44:40;7.32;;;2.10;;
69188;SDS011;56302;52.322;5.926;2022-08-30T07:47:06;6.63;;;2.17;;
69188;SDS011;56302;52.322;5.926;2022-08-30T07:49:31;5.05;;;1.75;;
69188;SDS011;56302;52.322;5.926;2022-08-30T07:51:57;5.43;;;1.83;;
69188;SDS011;56302;52.322;5.926;2022-08-30T07:54:22;5.80;;;2.00;;
69188;SDS011;56302;52.322;5.926;2022-08-30T07:56:48;4.30;;;2.03;;
69188;SDS011;56302;52.322;5.926;2022-08-30T07:59:13;7.33;;;2.20;;
69188;SDS011;56302;52.322;5.926;2022-08-30T08:01:39;4.87;;;2.07;;
69188;SDS011;56302;52.322;5.926;2022-08-30T08:04:05;4.47;;;2.17;;
69188;SDS011;56302;52.322;5.926;2022-08-30T08:06:30;4.47;;;2.30;;
69188;SDS011;56302;52.322;5.926;2022-08-30T08:08:56;5.90;;;2.10;;
69188;SDS011;56302;52.322;5.926;2022-08-30T08:11:26;5.60;;;2.50;;
69188;SDS011;56302;52.322;5.926;2022-08-30T08:13:53;4.38;;;2.00;;
69188;SDS011;56302;52.322;5.926;2022-08-30T08:16:19;6.47;;;2.65;;
69188;SDS011;56302;52.322;5.926;2022-08-30T08:18:47;4.95;;;1.95;;
69188;SDS011;56302;52.322;5.926;2022-08-30T08:21:12;5.33;;;1.90;;
69188;SDS011;56302;52.322;5.926;2022-08-30T08:23:38;3.45;;;1.92;;
69188;SDS011;56302;52.322;5.926;2022-08-30T08:26:03;4.23;;;1.77;;
69188;SDS011;56302;52.322;5.926;2022-08-30T08:28:29;5.43;;;2.33;;
69188;SDS011;56302;52.322;5.926;2022-08-30T08:30:55;4.30;;;1.77;;
69188;SDS011;56302;52.322;5.926;2022-08-30T08:33:21;3.72;;;1.77;;
69188;SDS011;56302;52.322;5.926;2022-08-30T08:35:46;4.70;;;1.87;;
69188;SDS011;56302;52.322;5.926;2022-08-30T08:38:12;4.20;;;1.80;;
69188;SDS011;56302;52.322;5.926;2022-08-30T08:43:41;4.40;;;1.70;;
69188;SDS011;56302;52.322;5.926;2022-08-30T08:49:02;4.07;;;1.67;;
69188;SDS011;56302;52.322;5.926;2022-08-30T08:51:31;4.50;;;1.67;;
69188;SDS011;56302;52.322;5.926;2022-08-30T08:56:54;6.38;;;1.98;;
69188;SDS011;56302;52.322;5.926;2022-08-30T08:59:20;4.20;;;1.87;;
69188;SDS011;56302;52.322;5.926;2022-08-30T09:01:46;3.72;;;1.30;;
69188;SDS011;56302;52.322;5.926;2022-08-30T09:04:16;5.43;;;1.43;;
69188;SDS011;56302;52.322;5.926;2022-08-30T09:07:31;2.95;;;1.20;;
69188;SDS011;56302;52.322;5.926;2022-08-30T09:09:47;5.10;;;1.48;;
69188;SDS011;56302;52.322;5.926;2022-08-30T09:12:13;3.55;;;1.50;;
69188;SDS011;56302;52.322;5.926;2022-08-30T09:14:40;4.50;;;1.40;;
69188;SDS011;56302;52.322;5.926;2022-08-30T09:17:13;4.40;;;1.70;;
69188;SDS011;56302;52.322;5.926;2022-08-30T09:24:47;7.38;;;1.30;;
69188;SDS011;56302;52.322;5.926;2022-08-30T09:27:37;3.55;;;1.70;;
69188;SDS011;56302;52.322;5.926;2022-08-30T09:33:04;3.28;;;1.40;;
69188;SDS011;56302;52.322;5.926;2022-08-30T09:35:36;4.43;;;1.33;;
69188;SDS011;56302;52.322;5.926;2022-08-30T09:38:09;3.38;;;1.30;;
69188;SDS011;56302;52.322;5.926;2022-08-30T09:40:46;4.10;;;1.88;;
69188;SDS011;56302;52.322;5.926;2022-08-30T09:46:09;6.18;;;1.88;;
69188;SDS011;56302;52.322;5.926;2022-08-30T09:48:38;4.03;;;1.63;;
69188;SDS011;56302;52.322;5.926;2022-08-30T09:59:15;5.38;;;1.67;;
69188;SDS011;56302;52.322;5.926;2022-08-30T10:13:03;3.92;;;1.48;;
69188;SDS011;56302;52.322;5.926;2022-08-30T10:15:46;4.20;;;1.40;;
69188;SDS011;56302;52.322;5.926;2022-08-30T10:18:23;4.00;;;1.90;;
69188;SDS011;56302;52.322;5.926;2022-08-30T10:21:14;6.25;;;1.60;;
69188;SDS011;56302;52.322;5.926;2022-08-30T10:23:51;5.27;;;1.57;;
69188;SDS011;56302;52.322;5.926;2022-08-30T10:29:00;4.43;;;1.67;;
69188;SDS011;56302;52.322;5.926;2022-08-30T10:34:23;3.60;;;1.50;;
69188;SDS011;56302;52.322;5.926;2022-08-30T10:37:07;4.53;;;1.60;;
69188;SDS011;56302;52.322;5.926;2022-08-30T10:39:41;5.78;;;1.50;;
69188;SDS011;56302;52.322;5.926;2022-08-30T10:42:23;3.03;;;1.60;;
69188;SDS011;56302;52.322;5.926;2022-08-30T10:44:52;4.57;;;1.50;;
69188;SDS011;56302;52.322;5.926;2022-08-30T10:50:39;4.93;;;1.73;;
69188;SDS011;56302;52.322;5.926;2022-08-30T10:53:09;5.25;;;1.48;;
69188;SDS011;56302;52.322;5.926;2022-08-30T10:55:41;3.58;;;1.75;;
69188;SDS011;56302;52.322;5.926;2022-08-30T10:58:13;3.20;;;1.50;;
69188;SDS011;56302;52.322;5.926;2022-08-30T11:00:44;6.00;;;1.83;;
69188;SDS011;56302;52.322;5.926;2022-08-30T11:09:10;4.28;;;1.85;;
69188;SDS011;56302;52.322;5.926;2022-08-30T11:12:06;4.50;;;1.60;;
69188;SDS011;56302;52.322;5.926;2022-08-30T11:14:43;3.80;;;1.75;;
69188;SDS011;56302;52.322;5.926;2022-08-30T11:17:24;6.03;;;1.60;;
69188;SDS011;56302;52.322;5.926;2022-08-30T11:19:50;4.30;;;1.60;;
69188;SDS011;56302;52.322;5.926;2022-08-30T11:22:27;4.47;;;1.98;;
69188;SDS011;56302;52.322;5.926;2022-08-30T11:25:14;5.10;;;1.70;;
69188;SDS011;56302;52.322;5.926;2022-08-30T11:28:00;3.40;;;1.75;;
69188;SDS011;56302;52.322;5.926;2022-08-30T11:30:44;3.77;;;1.90;;
69188;SDS011;56302;52.322;5.926;2022-08-30T11:35:43;6.10;;;1.83;;
69188;SDS011;56302;52.322;5.926;2022-08-30T11:41:05;3.83;;;1.67;;
69188;SDS011;56302;52.322;5.926;2022-08-30T11:48:53;5.95;;;1.60;;
69188;SDS011;56302;52.322;5.926;2022-08-30T12:08:09;3.38;;;1.67;;
69188;SDS011;56302;52.322;5.926;2022-08-30T12:10:39;5.10;;;1.90;;
69188;SDS011;56302;52.322;5.926;2022-08-30T12:13:11;3.78;;;1.52;;
69188;SDS011;56302;52.322;5.926;2022-08-30T12:16:14;5.60;;;2.10;;
69188;SDS011;56302;52.322;5.926;2022-08-30T12:19:21;8.27;;;1.67;;
69188;SDS011;56302;52.322;5.926;2022-08-30T12:21:55;3.05;;;1.33;;
69188;SDS011;56302;52.322;5.926;2022-08-30T12:27:20;4.65;;;1.73;;
69188;SDS011;56302;52.322;5.926;2022-08-30T12:29:54;2.72;;;1.63;;
69188;SDS011;56302;52.322;5.926;2022-08-30T12:32:25;3.30;;;1.90;;
69188;SDS011;56302;52.322;5.926;2022-08-30T12:34:52;6.18;;;1.50;;
69188;SDS011;56302;52.322;5.926;2022-08-30T12:40:03;4.88;;;1.75;;
69188;SDS011;56302;52.322;5.926;2022-08-30T12:42:36;4.72;;;1.40;;
69188;SDS011;56302;52.322;5.926;2022-08-30T12:45:14;4.40;;;1.87;;
69188;SDS011;56302;52.322;5.926;2022-08-30T12:47:44;6.00;;;1.65;;
69188;SDS011;56302;52.322;5.926;2022-08-30T12:50:12;3.83;;;1.42;;
69188;SDS011;56302;52.322;5.926;2022-08-30T12:52:46;3.20;;;1.50;;
69188;SDS011;56302;52.322;5.926;2022-08-30T12:55:21;8.02;;;2.05;;
69188;SDS011;56302;52.322;5.926;2022-08-30T12:58:07;3.97;;;1.70;;
69188;SDS011;56302;52.322;5.926;2022-08-30T13:00:35;5.20;;;1.48;;
69188;SDS011;56302;52.322;5.926;2022-08-30T13:05:52;2.97;;;1.38;;
69188;SDS011;56302;52.322;5.926;2022-08-30T13:08:20;5.13;;;2.00;;
69188;SDS011;56302;52.322;5.926;2022-08-30T13:10:59;3.30;;;1.10;;
69188;SDS011;56302;52.322;5.926;2022-08-30T13:13:45;2.67;;;1.20;;
69188;SDS011;56302;52.322;5.926;2022-08-30T13:18:45;5.60;;;1.50;;
69188;SDS011;56302;52.322;5.926;2022-08-30T13:23:55;4.03;;;1.20;;
69188;SDS011;56302;52.322;5.926;2022-08-30T13:26:25;3.53;;;1.90;;
69188;SDS011;56302;52.322;5.926;2022-08-30T13:29:00;3.45;;;1.90;;
69188;SDS011;56302;52.322;5.926;2022-08-30T13:31:28;3.50;;;1.27;;
69188;SDS011;56302;52.322;5.926;2022-08-30T13:33:54;4.82;;;1.90;;
69188;SDS011;56302;52.322;5.926;2022-08-30T13:36:20;6.97;;;2.00;;
69188;SDS011;56302;52.322;5.926;2022-08-30T13:38:49;3.47;;;1.00;;
69188;SDS011;56302;52.322;5.926;2022-08-30T13:41:15;3.90;;;1.55;;
69188;SDS011;56302;52.322;5.926;2022-08-30T13:43:41;4.15;;;1.00;;
69188;SDS011;56302;52.322;5.926;2022-08-30T13:46:07;4.43;;;1.73;;
69188;SDS011;56302;52.322;5.926;2022-08-30T13:48:35;4.10;;;1.58;;
69188;SDS011;56302;52.322;5.926;2022-08-30T13:51:01;4.28;;;1.50;;
69188;SDS011;56302;52.322;5.926;2022-08-30T13:53:27;3.07;;;1.30;;
69188;SDS011;56302;52.322;5.926;2022-08-30T13:55:52;3.25;;;1.60;;
69188;SDS011;56302;52.322;5.926;2022-08-30T13:58:18;4.83;;;1.63;;
69188;SDS011;56302;52.322;5.926;2022-08-30T14:00:44;4.17;;;1.20;;
69188;SDS011;56302;52.322;5.926;2022-08-30T14:03:12;3.40;;;1.35;;
69188;SDS011;56302;52.322;5.926;2022-08-30T14:05:39;4.15;;;1.40;;
69188;SDS011;56302;52.322;5.926;2022-08-30T14:08:06;3.80;;;1.33;;
69188;SDS011;56302;52.322;5.926;2022-08-30T14:10:34;3.00;;;1.42;;
69188;SDS011;56302;52.322;5.926;2022-08-30T14:13:00;3.13;;;1.50;;
69188;SDS011;56302;52.322;5.926;2022-08-30T14:15:26;3.50;;;1.58;;
69188;SDS011;56302;52.322;5.926;2022-08-30T14:17:52;2.83;;;1.38;;
69188;SDS011;56302;52.322;5.926;2022-08-30T14:20:18;3.47;;;1.50;;
69188;SDS011;56302;52.322;5.926;2022-08-30T14:22:44;4.03;;;1.55;;
69188;SDS011;56302;52.322;5.926;2022-08-30T14:25:10;4.57;;;0.95;;
69188;SDS011;56302;52.322;5.926;2022-08-30T14:27:36;3.80;;;1.40;;
69188;SDS011;56302;52.322;5.926;2022-08-30T14:30:03;3.50;;;1.52;;
69188;SDS011;56302;52.322;5.926;2022-08-30T14:32:29;3.25;;;1.50;;
69188;SDS011;56302;52.322;5.926;2022-08-30T14:34:56;3.43;;;1.20;;
69188;SDS011;56302;52.322;5.926;2022-08-30T14:37:22;6.22;;;1.90;;
69188;SDS011;56302;52.322;5.926;2022-08-30T14:39:47;3.33;;;1.20;;
69188;SDS011;56302;52.322;5.926;2022-08-30T14:42:13;3.72;;;1.20;;
69188;SDS011;56302;52.322;5.926;2022-08-30T14:44:38;3.73;;;1.27;;
69188;SDS011;56302;52.322;5.926;2022-08-30T14:47:04;2.97;;;1.20;;
69188;SDS011;56302;52.322;5.926;2022-08-30T14:49:31;3.50;;;1.10;;
69188;SDS011;56302;52.322;5.926;2022-08-30T14:51:57;3.57;;;1.40;;
69188;SDS011;56302;52.322;5.926;2022-08-30T14:54:24;2.83;;;1.20;;
69188;SDS011;56302;52.322;5.926;2022-08-30T14:56:52;4.65;;;1.60;;
69188;SDS011;56302;52.322;5.926;2022-08-30T14:59:18;4.97;;;1.67;;
69188;SDS011;56302;52.322;5.926;2022-08-30T15:01:44;3.45;;;1.45;;
69188;SDS011;56302;52.322;5.926;2022-08-30T15:04:10;3.30;;;1.33;;
69188;SDS011;56302;52.322;5.926;2022-08-30T15:06:37;5.87;;;1.60;;
69188;SDS011;56302;52.322;5.926;2022-08-30T15:09:05;2.85;;;0.98;;
69188;SDS011;56302;52.322;5.926;2022-08-30T15:11:32;4.35;;;1.35;;
69188;SDS011;56302;52.322;5.926;2022-08-30T15:13:58;6.30;;;1.75;;
69188;SDS011;56302;52.322;5.926;2022-08-30T15:16:24;3.50;;;1.40;;
69188;SDS011;56302;52.322;5.926;2022-08-30T15:18:52;3.47;;;1.42;;
69188;SDS011;56302;52.322;5.926;2022-08-30T15:21:23;3.38;;;1.70;;
69188;SDS011;56302;52.322;5.926;2022-08-30T15:23:50;6.23;;;1.50;;
69188;SDS011;56302;52.322;5.926;2022-08-30T15:26:16;2.88;;;1.20;;
69188;SDS011;56302;52.322;5.926;2022-08-30T15:28:41;4.37;;;1.27;;
69188;SDS011;56302;52.322;5.926;2022-08-30T15:31:07;4.35;;;1.63;;
69188;SDS011;56302;52.322;5.926;2022-08-30T15:33:32;4.57;;;1.60;;
69188;SDS011;56302;52.322;5.926;2022-08-30T15:35:58;5.47;;;1.63;;
69188;SDS011;56302;52.322;5.926;2022-08-30T15:38:25;3.03;;;1.23;;
69188;SDS011;56302;52.322;5.926;2022-08-30T15:40:52;3.35;;;1.35;;
69188;SDS011;56302;52.322;5.926;2022-08-30T15:43:17;3.65;;;1.40;;
69188;SDS011;56302;52.322;5.926;2022-08-30T15:45:43;4.43;;;1.60;;
69188;SDS011;56302;52.322;5.926;2022-08-30T15:48:09;4.38;;;1.25;;
69188;SDS011;56302;52.322;5.926;2022-08-30T15:50:35;2.80;;;1.23;;
69188;SDS011;56302;52.322;5.926;2022-08-30T15:53:01;5.75;;;1.38;;
69188;SDS011;56302;52.322;5.926;2022-08-30T15:55:27;4.30;;;1.30;;
69188;SDS011;56302;52.322;5.926;2022-08-30T15:57:53;3.80;;;1.70;;
69188;SDS011;56302;52.322;5.926;2022-08-30T16:00:18;3.17;;;1.20;;
69188;SDS011;56302;52.322;5.926;2022-08-30T16:02:44;5.57;;;1.40;;
69188;SDS011;56302;52.322;5.926;2022-08-30T16:05:13;5.90;;;1.45;;
69188;SDS011;56302;52.322;5.926;2022-08-30T16:07:39;3.70;;;1.57;;
69188;SDS011;56302;52.322;5.926;2022-08-30T16:10:04;3.17;;;1.17;;
69188;SDS011;56302;52.322;5.926;2022-08-30T16:12:30;3.20;;;1.65;;
69188;SDS011;56302;52.322;5.926;2022-08-30T16:14:56;7.07;;;1.90;;
69188;SDS011;56302;52.322;5.926;2022-08-30T16:17:21;6.77;;;1.40;;
69188;SDS011;56302;52.322;5.926;2022-08-30T16:19:48;5.63;;;1.27;;
69188;SDS011;56302;52.322;5.926;2022-08-30T16:22:13;6.43;;;1.63;;
69188;SDS011;56302;52.322;5.926;2022-08-30T16:24:39;5.95;;;2.00;;
69188;SDS011;56302;52.322;5.926;2022-08-30T16:27:06;3.20;;;1.60;;
69188;SDS011;56302;52.322;5.926;2022-08-30T16:29:31;3.80;;;1.40;;